createdAt,value
2022-09-28T00:00:55.038Z,69.40
2022-09-28T00:03:23.577Z,69.20
2022-09-28T00:05:54.678Z,69.60
2022-09-28T00:08:22.870Z,69.30
2022-09-28T00:10:57.352Z,69.30
2022-09-28T00:13:27.519Z,68.70
2022-09-28T00:16:06.598Z,68.70
2022-09-28T00:18:36.147Z,68.70
2022-09-28T00:21:08.267Z,68.20
2022-09-28T00:23:58.719Z,68.30
2022-09-28T00:26:27.570Z,68.20
2022-09-28T00:28:59.315Z,69.10
2022-09-28T00:31:29.276Z,68.00
2022-09-28T00:33:57.794Z,67.80
2022-09-28T00:36:27.151Z,68.00
2022-09-28T00:38:56.389Z,67.60
2022-09-28T00:41:25.717Z,67.70
2022-09-28T00:43:54.579Z,67.80
2022-09-28T00:46:32.326Z,67.50
2022-09-28T00:49:07.521Z,67.60
2022-09-28T00:51:39.872Z,67.70
2022-09-28T00:54:11.253Z,67.70
2022-09-28T00:56:45.301Z,67.50
2022-09-28T00:59:14.820Z,67.50
2022-09-28T01:01:46.425Z,67.60
2022-09-28T01:04:14.907Z,67.50
2022-09-28T01:06:49.691Z,67.50
2022-09-28T01:09:19.484Z,67.10
2022-09-28T01:11:47.952Z,67.00
2022-09-28T01:14:18.164Z,67.40
2022-09-28T01:16:56.350Z,67.10
2022-09-28T01:19:59.465Z,67.10
2022-09-28T01:22:46.636Z,67.00
2022-09-28T01:25:25.140Z,67.00
2022-09-28T01:28:01.676Z,67.00
2022-09-28T01:30:32.885Z,67.10
2022-09-28T01:33:06.968Z,67.10
2022-09-28T01:35:39.495Z,67.20
2022-09-28T01:38:13.715Z,67.30
2022-09-28T01:40:42.859Z,67.40
2022-09-28T01:43:17.558Z,67.40
2022-09-28T01:45:49.523Z,67.50
2022-09-28T01:48:23.615Z,67.40
2022-09-28T01:50:56.238Z,67.30
2022-09-28T01:53:28.154Z,67.40
2022-09-28T01:56:01.507Z,67.40
2022-09-28T01:58:37.628Z,67.30
2022-09-28T02:01:13.131Z,67.50
2022-09-28T02:03:45.647Z,67.60
2022-09-28T02:06:19.581Z,67.50
2022-09-28T02:08:52.168Z,67.70
2022-09-28T02:11:22.560Z,67.70
2022-09-28T02:14:00.264Z,67.80
2022-09-28T02:16:37.384Z,68.00
2022-09-28T02:19:06.566Z,68.00
2022-09-28T02:21:43.030Z,68.20
2022-09-28T02:24:21.267Z,68.00
2022-09-28T02:26:52.523Z,68.40
2022-09-28T02:29:24.721Z,68.50
2022-09-28T02:31:53.325Z,68.20
2022-09-28T02:34:21.555Z,68.20
2022-09-28T02:36:50.606Z,68.30
2022-09-28T02:39:19.204Z,68.70
2022-09-28T02:41:56.933Z,68.60
2022-09-28T02:44:49.615Z,68.60
2022-09-28T02:47:25.810Z,68.90
2022-09-28T02:50:05.367Z,68.60
2022-09-28T02:52:51.283Z,68.60
2022-09-28T02:55:25.130Z,68.70
2022-09-28T02:58:16.122Z,68.60
2022-09-28T03:00:51.397Z,68.70
2022-09-28T03:03:25.548Z,68.80
2022-09-28T03:06:00.458Z,68.60
2022-09-28T03:08:39.012Z,68.50
2022-09-28T03:11:15.253Z,68.50
2022-09-28T03:13:44.392Z,68.70
2022-09-28T03:16:16.671Z,68.70
2022-09-28T03:18:47.141Z,68.70
2022-09-28T03:21:18.045Z,68.60
2022-09-28T03:23:48.698Z,68.60
2022-09-28T03:26:19.890Z,68.70
2022-09-28T03:28:48.088Z,68.80
2022-09-28T03:31:24.812Z,69.30
2022-09-28T03:33:53.392Z,68.90
2022-09-28T03:36:21.638Z,69.00
2022-09-28T03:38:53.278Z,69.00
2022-09-28T03:41:21.468Z,69.90
2022-09-28T03:43:49.782Z,69.20
2022-09-28T03:46:18.211Z,69.50
2022-09-28T03:48:51.827Z,69.40
2022-09-28T03:51:19.996Z,69.60
2022-09-28T03:53:48.247Z,69.50
2022-09-28T03:56:17.378Z,69.60
2022-09-28T03:58:45.544Z,69.60
2022-09-28T04:01:17.954Z,69.70
2022-09-28T04:03:48.420Z,69.60
2022-09-28T04:06:17.884Z,69.60
2022-09-28T04:08:45.971Z,69.80
2022-09-28T04:11:14.762Z,70.00
2022-09-28T04:13:43.045Z,70.00
2022-09-28T04:16:14.594Z,70.00
2022-09-28T04:18:47.859Z,70.00
2022-09-28T04:21:45.636Z,69.90
2022-09-28T04:24:17.177Z,70.00
2022-09-28T04:26:45.306Z,69.80
2022-09-28T04:29:16.454Z,70.00
2022-09-28T04:31:51.240Z,69.90
2022-09-28T04:34:22.571Z,69.80
2022-09-28T04:36:52.642Z,70.00
2022-09-28T04:39:21.618Z,70.20
2022-09-28T04:41:52.897Z,70.40
2022-09-28T04:44:21.218Z,70.20
2022-09-28T04:46:51.349Z,70.50
2022-09-28T04:49:31.652Z,70.30
2022-09-28T04:52:07.638Z,70.30
2022-09-28T04:54:39.138Z,70.50
2022-09-28T04:57:07.739Z,70.60
2022-09-28T04:59:37.644Z,70.70
2022-09-28T05:02:08.089Z,70.50
2022-09-28T05:05:18.008Z,70.70
2022-09-28T05:08:09.700Z,70.80
2022-09-28T05:10:40.970Z,70.70
2022-09-28T05:13:09.818Z,70.90
2022-09-28T05:15:39.077Z,70.90
2022-09-28T05:18:08.283Z,70.70
2022-09-28T05:21:03.093Z,70.90
2022-09-28T05:23:37.464Z,70.80
2022-09-28T05:26:09.173Z,71.40
2022-09-28T05:28:38.040Z,70.90
2022-09-28T05:31:32.735Z,71.30
2022-09-28T05:34:13.304Z,71.30
2022-09-28T05:36:43.004Z,71.40
2022-09-28T05:39:13.823Z,71.40
2022-09-28T05:41:42.058Z,71.50
2022-09-28T05:44:10.381Z,71.90
2022-09-28T05:46:38.859Z,71.80
2022-09-28T05:49:07.139Z,71.60
2022-09-28T05:51:35.431Z,71.50
2022-09-28T05:54:06.136Z,71.50
2022-09-28T05:56:37.717Z,71.60
2022-09-28T05:59:08.051Z,71.40
2022-09-28T06:01:37.946Z,71.40
2022-09-28T06:04:10.081Z,71.30
2022-09-28T06:06:39.003Z,71.30
2022-09-28T06:09:07.277Z,71.50
2022-09-28T06:11:45.787Z,71.90
2022-09-28T06:14:25.371Z,71.30
2022-09-28T06:16:54.595Z,71.30
2022-09-28T06:19:25.165Z,71.30
2022-09-28T06:22:29.047Z,71.30
2022-09-28T06:25:06.771Z,71.30
2022-09-28T06:27:37.299Z,70.90
2022-09-28T06:30:06.170Z,71.00
2022-09-28T06:32:34.589Z,71.70
2022-09-28T06:35:02.823Z,71.30
2022-09-28T06:37:33.184Z,71.10
2022-09-28T06:40:03.005Z,71.10
2022-09-28T06:42:37.053Z,70.90
2022-09-28T06:45:25.727Z,70.80
2022-09-28T06:48:15.147Z,70.90
2022-09-28T06:50:44.223Z,71.00
2022-09-28T07:08:43.511Z,70.40
2022-09-28T07:11:41.444Z,70.60
2022-09-28T07:14:39.679Z,70.20
2022-09-28T07:17:23.723Z,70.40
2022-09-28T07:19:53.985Z,70.90
2022-09-28T07:22:35.134Z,70.30
2022-09-28T07:25:11.035Z,70.30
2022-09-28T07:29:16.866Z,70.20
2022-09-28T07:32:11.679Z,70.30
2022-09-28T07:34:58.721Z,70.30
2022-09-28T07:38:01.608Z,69.80
2022-09-28T07:40:52.893Z,69.90
2022-09-28T07:43:24.317Z,69.70
2022-09-28T07:45:55.761Z,69.90
2022-09-28T07:48:27.174Z,69.80
2022-09-28T07:51:00.182Z,70.20
2022-09-28T07:53:49.114Z,70.00
2022-09-28T07:56:37.239Z,70.00
2022-09-28T07:59:25.109Z,70.10
2022-09-28T08:02:18.301Z,70.30
2022-09-28T08:04:46.799Z,70.10
2022-09-28T08:07:16.637Z,70.10
2022-09-28T08:09:49.521Z,70.20
2022-09-28T08:12:31.364Z,70.20
2022-09-28T08:15:10.342Z,70.00
2022-09-28T08:18:01.979Z,70.10
2022-09-28T08:20:51.595Z,70.20
2022-09-28T08:23:23.663Z,70.20
2022-09-28T08:25:53.945Z,70.20
2022-09-28T08:28:25.673Z,70.40
2022-09-28T08:31:40.417Z,70.60
2022-09-28T08:34:20.748Z,70.60
2022-09-28T08:37:10.217Z,70.90
2022-09-28T08:40:13.733Z,71.00
2022-09-28T08:43:04.348Z,70.50
2022-09-28T08:45:53.310Z,70.70
2022-09-28T08:49:20.662Z,70.70
2022-09-28T08:52:13.497Z,70.60
2022-09-28T08:55:02.696Z,70.50
2022-09-28T08:57:51.130Z,70.80
2022-09-28T09:00:22.612Z,70.30
2022-09-28T09:03:01.632Z,70.40
2022-09-28T09:05:48.148Z,71.20
2022-09-28T09:08:39.883Z,70.90
2022-09-28T09:11:17.713Z,70.90
2022-09-28T09:14:19.353Z,70.80
2022-09-28T09:17:00.646Z,70.80
2022-09-28T09:19:55.353Z,70.90
2022-09-28T09:22:48.819Z,70.80
2022-09-28T09:25:22.736Z,70.90
2022-09-28T09:28:24.456Z,70.80
2022-09-28T09:31:01.872Z,71.00
2022-09-28T09:33:52.207Z,70.90
2022-09-28T09:36:55.251Z,71.00
2022-09-28T09:40:01.375Z,70.80
2022-09-28T09:43:09.472Z,70.90
2022-09-28T09:46:05.962Z,70.80
2022-09-28T09:48:46.388Z,70.80
2022-09-28T09:51:22.017Z,70.90
2022-09-28T09:54:00.277Z,71.10
2022-09-28T09:56:35.623Z,71.30
2022-09-28T09:59:16.713Z,71.60
2022-09-28T10:02:04.069Z,71.60
2022-09-28T10:04:55.878Z,71.80
2022-09-28T10:07:42.594Z,71.90
2022-09-28T10:10:20.534Z,71.70
2022-09-28T10:12:52.534Z,71.70
2022-09-28T10:15:25.335Z,72.00
2022-09-28T10:18:22.811Z,71.80
2022-09-28T10:21:14.009Z,72.20
2022-09-28T10:24:05.129Z,72.20
2022-09-28T10:26:38.594Z,72.40
2022-09-28T10:29:16.139Z,72.50
2022-09-28T10:31:46.425Z,72.70
2022-09-28T10:34:36.557Z,72.70
2022-09-28T10:37:12.222Z,72.70
2022-09-28T10:39:58.913Z,73.40
2022-09-28T10:42:36.260Z,72.80
2022-09-28T10:45:22.266Z,72.90
2022-09-28T10:47:51.475Z,72.80
2022-09-28T10:50:23.587Z,72.70
2022-09-28T10:53:12.941Z,72.70
2022-09-28T10:56:02.872Z,72.70
2022-09-28T10:58:39.789Z,72.80
2022-09-28T11:01:13.548Z,73.00
2022-09-28T11:03:51.734Z,73.00
2022-09-28T11:06:27.324Z,73.00
2022-09-28T11:08:59.526Z,73.00
2022-09-28T11:11:31.550Z,73.20
2022-09-28T11:14:25.918Z,73.30
2022-09-28T11:17:17.659Z,73.10
2022-09-28T11:19:49.331Z,72.80
2022-09-28T11:22:28.924Z,73.20
2022-09-28T11:25:36.407Z,73.00
2022-09-28T11:28:07.427Z,73.40
2022-09-28T11:30:45.804Z,73.50
2022-09-28T11:33:33.012Z,73.80
2022-09-28T11:36:32.724Z,73.90
2022-09-28T11:39:09.594Z,74.50
2022-09-28T11:41:57.921Z,74.40
2022-09-28T11:44:44.740Z,74.80
2022-09-28T11:47:38.165Z,75.00
2022-09-28T11:50:22.952Z,75.10
2022-09-28T11:53:00.581Z,76.00
2022-09-28T11:55:36.063Z,76.00
2022-09-28T11:58:12.799Z,73.70
2022-09-28T12:00:46.914Z,70.60
2022-09-28T12:03:21.357Z,69.20
2022-09-28T12:05:53.075Z,68.10
2022-09-28T12:08:27.705Z,66.80
2022-09-28T12:11:26.412Z,66.00
2022-09-28T12:14:19.796Z,65.40
2022-09-28T12:17:05.861Z,65.50
2022-09-28T12:19:43.748Z,65.70
2022-09-28T12:22:18.283Z,65.60
2022-09-28T12:24:49.986Z,65.80
2022-09-28T12:27:24.196Z,66.30
2022-09-28T12:29:57.590Z,66.90
2022-09-28T12:32:32.678Z,67.00
2022-09-28T12:35:03.196Z,67.00
2022-09-28T12:37:43.463Z,66.90
2022-09-28T12:40:37.142Z,67.40
2022-09-28T12:43:28.900Z,68.40
2022-09-28T12:46:19.133Z,68.40
2022-09-28T12:49:56.269Z,68.90
2022-09-28T12:51:57.609Z,68.90
2022-09-28T12:54:52.296Z,66.20
2022-09-28T12:57:41.344Z,64.10
2022-09-28T13:00:13.019Z,62.70
2022-09-28T13:03:14.169Z,62.30
2022-09-28T13:06:12.940Z,61.50
2022-09-28T13:08:55.349Z,62.30
2022-09-28T13:11:33.664Z,62.70
2022-09-28T13:14:22.037Z,63.00
2022-09-28T13:17:00.659Z,63.80
2022-09-28T13:19:40.670Z,64.70
2022-09-28T13:22:23.027Z,66.10
2022-09-28T13:24:55.887Z,66.30
2022-09-28T13:27:31.539Z,67.60
2022-09-28T13:30:03.674Z,66.50
2022-09-28T13:32:33.159Z,65.10
2022-09-28T13:35:02.560Z,63.70
2022-09-28T13:37:30.946Z,63.30
2022-09-28T13:40:06.135Z,63.60
2022-09-28T13:42:57.122Z,63.40
2022-09-28T13:45:56.895Z,63.50
2022-09-28T13:48:38.734Z,64.00
2022-09-28T13:51:38.146Z,65.00
2022-09-28T13:54:32.662Z,64.80
2022-09-28T13:57:20.105Z,64.70
2022-09-28T13:59:59.235Z,64.60
2022-09-28T14:02:36.568Z,65.00
2022-09-28T14:05:07.193Z,65.30
2022-09-28T14:07:59.806Z,65.40
2022-09-28T14:10:52.800Z,65.50
2022-09-28T14:14:03.841Z,65.70
2022-09-28T14:16:34.771Z,66.10
2022-09-28T14:19:08.315Z,66.40
2022-09-28T14:21:59.460Z,66.40
2022-09-28T14:24:52.313Z,66.40
2022-09-28T14:27:55.532Z,66.30
2022-09-28T14:30:25.804Z,66.30
2022-09-28T14:32:58.904Z,66.10
2022-09-28T14:35:32.746Z,66.10
2022-09-28T14:38:21.083Z,66.40
2022-09-28T14:41:11.163Z,67.00
2022-09-28T14:44:09.188Z,67.80
2022-09-28T14:46:40.600Z,68.00
2022-09-28T14:50:01.030Z,68.50
2022-09-28T14:52:48.411Z,69.40
2022-09-28T14:55:25.549Z,68.80
2022-09-28T14:57:56.991Z,69.00
2022-09-28T15:00:29.830Z,68.80
2022-09-28T15:03:03.549Z,68.60
2022-09-28T15:05:39.905Z,68.60
2022-09-28T15:08:08.830Z,68.20
2022-09-28T15:10:42.192Z,68.40
2022-09-28T15:13:21.558Z,68.20
2022-09-28T15:15:52.677Z,68.40
2022-09-28T15:19:08.964Z,68.30
2022-09-28T15:21:41.083Z,68.30
2022-09-28T15:24:33.597Z,68.70
2022-09-28T15:27:02.573Z,69.10
2022-09-28T15:29:33.658Z,68.90
2022-09-28T15:32:03.083Z,69.20
2022-09-28T15:34:54.743Z,69.40
2022-09-28T15:37:28.156Z,69.00
2022-09-28T15:40:01.047Z,69.00
2022-09-28T15:42:37.794Z,68.60
2022-09-28T15:45:53.664Z,68.70
2022-09-28T15:48:55.922Z,68.10
2022-09-28T15:54:26.026Z,67.90
2022-09-28T15:57:00.943Z,67.40
2022-09-28T15:59:49.627Z,67.60
2022-09-28T16:02:28.329Z,67.20
2022-09-28T16:04:59.100Z,67.70
2022-09-28T16:07:33.441Z,67.80
2022-09-28T16:10:06.862Z,67.70
2022-09-28T16:12:48.246Z,67.60
2022-09-28T16:15:39.264Z,67.40
2022-09-28T16:18:25.824Z,68.00
2022-09-28T16:20:56.266Z,67.50
2022-09-28T16:23:30.689Z,67.70
2022-09-28T16:26:33.479Z,67.70
2022-09-28T16:29:10.980Z,67.70
2022-09-28T16:31:43.321Z,67.70
2022-09-28T16:34:23.088Z,67.80
2022-09-28T16:36:52.470Z,68.10
2022-09-28T16:39:21.992Z,67.90
2022-09-28T16:42:03.262Z,67.90
2022-09-28T16:44:48.155Z,67.80
2022-09-28T16:47:16.719Z,67.80
2022-09-28T16:49:44.967Z,68.20
2022-09-28T16:52:13.651Z,68.30
2022-09-28T16:55:29.211Z,68.20
2022-09-28T16:58:00.135Z,68.00
2022-09-28T17:00:30.425Z,67.90
2022-09-28T17:02:59.480Z,68.10
2022-09-28T17:05:28.074Z,68.20
2022-09-28T17:08:02.193Z,68.30
2022-09-28T17:10:50.101Z,68.20
2022-09-28T17:13:33.560Z,68.10
2022-09-28T17:16:10.507Z,68.20
2022-09-28T17:18:39.843Z,68.20
2022-09-28T17:21:12.527Z,68.30
2022-09-28T17:23:43.525Z,68.20
2022-09-28T17:26:19.961Z,68.50
2022-09-28T17:28:48.434Z,68.40
2022-09-28T17:31:18.523Z,68.60
2022-09-28T17:33:48.705Z,68.60
2022-09-28T17:36:19.271Z,68.90
2022-09-28T17:38:49.897Z,68.80
2022-09-28T17:41:21.145Z,69.20
2022-09-28T17:43:52.890Z,69.00
2022-09-28T17:46:30.634Z,70.00
2022-09-28T17:49:03.208Z,69.10
2022-09-28T17:51:34.725Z,69.20
2022-09-28T17:54:13.117Z,69.20
2022-09-28T17:56:42.692Z,69.40
2022-09-28T17:59:19.264Z,69.20
2022-09-28T18:21:39.384Z,69.40
2022-09-28T18:24:15.316Z,69.30
2022-09-28T18:26:43.667Z,69.50
2022-09-28T18:29:12.061Z,69.60
2022-09-28T18:31:40.389Z,70.20
2022-09-28T18:34:08.590Z,70.10
2022-09-28T18:36:47.358Z,70.30
2022-09-28T18:39:15.815Z,70.50
2022-09-28T18:41:45.569Z,70.50
2022-09-28T18:44:14.413Z,70.60
2022-09-28T18:46:44.457Z,71.10
2022-09-28T18:49:31.931Z,71.20
2022-09-28T18:52:03.367Z,71.40
2022-09-28T18:55:07.353Z,71.30
2022-09-28T18:58:08.073Z,71.50
2022-09-28T19:00:48.802Z,71.30
2022-09-28T19:04:02.595Z,71.40
2022-09-28T19:07:17.435Z,71.60
2022-09-28T19:09:57.575Z,71.60
2022-09-28T19:15:10.074Z,71.80
2022-09-28T19:21:02.331Z,71.70
2022-09-28T19:23:30.627Z,71.80
2022-09-28T19:26:02.912Z,71.80
2022-09-28T19:28:31.177Z,71.90
2022-09-28T19:33:29.338Z,72.10
2022-09-28T19:36:02.287Z,72.40
2022-09-28T19:38:34.170Z,72.30
2022-09-28T19:41:10.510Z,72.40
2022-09-28T19:47:15.293Z,73.00
2022-09-28T19:49:49.520Z,72.70
2022-09-28T19:52:25.399Z,72.90
2022-09-28T19:55:01.134Z,72.40
2022-09-28T19:57:54.095Z,73.00
2022-09-28T20:01:17.249Z,72.70
2022-09-28T20:04:01.535Z,73.00
2022-09-28T20:09:49.691Z,72.90
2022-09-28T20:12:35.373Z,72.80
2022-09-28T20:15:32.302Z,72.80
2022-09-28T20:22:02.733Z,72.80
2022-09-28T20:24:31.351Z,73.00
2022-09-28T20:27:01.345Z,73.00
2022-09-28T20:29:31.651Z,73.40
2022-09-28T20:32:04.290Z,73.20
2022-09-28T20:34:33.654Z,73.30
2022-09-28T20:37:02.733Z,73.30
2022-09-28T20:39:31.076Z,73.30
2022-09-28T20:41:59.372Z,73.70
2022-09-28T20:44:30.082Z,73.50
2022-09-28T20:46:58.428Z,74.00
2022-09-28T20:49:28.371Z,73.80
2022-09-28T20:51:56.456Z,73.60
2022-09-28T20:54:25.578Z,73.40
2022-09-28T20:56:53.788Z,73.70
2022-09-28T20:59:25.805Z,73.70
2022-09-28T21:01:53.998Z,73.80
2022-09-28T21:04:22.249Z,74.00
2022-09-28T21:06:52.199Z,73.80
2022-09-28T21:09:20.356Z,74.30
2022-09-28T21:11:48.500Z,74.10
2022-09-28T21:14:17.229Z,75.00
2022-09-28T21:16:45.724Z,74.10
2022-09-28T21:19:14.041Z,75.10
2022-09-28T21:21:42.257Z,74.20
2022-09-28T21:24:11.987Z,75.10
2022-09-28T21:26:40.356Z,75.30
2022-09-28T21:29:12.175Z,75.40
2022-09-28T21:31:42.123Z,75.10
2022-09-28T21:34:13.369Z,76.00
2022-09-28T21:36:43.588Z,75.60
2022-09-28T21:39:13.451Z,75.50
2022-09-28T21:41:42.071Z,75.50
2022-09-28T21:44:10.196Z,75.50
2022-09-28T21:46:40.907Z,75.60
2022-09-28T21:49:14.830Z,75.40
2022-09-28T21:51:45.234Z,75.20
2022-09-28T21:54:15.042Z,75.60
2022-09-28T21:56:44.753Z,75.80
2022-09-28T21:59:13.024Z,75.60
2022-09-28T22:01:42.653Z,75.70
2022-09-28T22:04:11.927Z,75.70
2022-09-28T22:06:40.478Z,75.70
2022-09-28T22:09:11.231Z,75.90
2022-09-28T22:11:42.948Z,76.20
2022-09-28T22:14:11.938Z,76.10
2022-09-28T22:16:40.775Z,75.80
2022-09-28T22:22:00.369Z,75.90
2022-09-28T22:24:28.906Z,76.00
2022-09-28T22:26:58.534Z,75.80
2022-09-28T22:29:32.654Z,75.80
2022-09-28T22:32:02.529Z,75.90
2022-09-28T22:34:32.042Z,76.10
2022-09-28T22:37:01.031Z,75.80
2022-09-28T22:39:30.678Z,76.10
2022-09-28T22:42:04.117Z,76.10
2022-09-28T22:44:38.770Z,76.10
2022-09-28T22:47:08.312Z,75.90
2022-09-28T22:49:38.995Z,76.10
2022-09-28T22:52:10.170Z,76.30
2022-09-28T22:54:42.090Z,76.60
2022-09-28T22:57:13.712Z,76.30
2022-09-28T22:59:44.321Z,76.40
2022-09-28T23:02:19.103Z,76.30
2022-09-28T23:04:49.966Z,76.70
2022-09-28T23:07:20.573Z,76.70
2022-09-28T23:09:56.312Z,76.60
2022-09-28T23:12:33.312Z,76.60
2022-09-28T23:15:09.329Z,76.40
2022-09-28T23:17:40.240Z,76.20
2022-09-28T23:20:13.897Z,76.00
2022-09-28T23:22:50.480Z,75.90
2022-09-28T23:25:28.478Z,75.90
2022-09-28T23:28:11.033Z,76.10
2022-09-28T23:30:41.589Z,76.20
2022-09-28T23:33:21.156Z,76.20
2022-09-28T23:36:05.918Z,76.50
2022-09-28T23:38:38.390Z,76.80
2022-09-28T23:41:17.416Z,76.60
2022-09-28T23:43:54.190Z,76.50
2022-09-28T23:46:28.286Z,76.20
2022-09-28T23:49:10.636Z,76.40
2022-09-28T23:51:41.861Z,76.40
2022-09-28T23:54:18.405Z,76.20
2022-09-28T23:57:00.605Z,76.10
